sensor_id;sensor_type;location;lat;lon;timestamp;P1;durP1;ratioP1;P2;durP2;ratioP2
4652;SDS011;9900;48.738;9.306;2023-06-10T00:01:40;9.63;;;6.63;;
4652;SDS011;9900;48.738;9.306;2023-06-10T00:04:10;9.63;;;6.10;;
4652;SDS011;9900;48.738;9.306;2023-06-10T00:06:40;8.87;;;6.50;;
4652;SDS011;9900;48.738;9.306;2023-06-10T00:09:11;9.60;;;6.00;;
4652;SDS011;9900;48.738;9.306;2023-06-10T00:11:41;7.37;;;5.87;;
4652;SDS011;9900;48.738;9.306;2023-06-10T00:14:10;7.00;;;6.00;;
4652;SDS011;9900;48.738;9.306;2023-06-10T00:16:39;12.10;;;6.33;;
4652;SDS011;9900;48.738;9.306;2023-06-10T00:19:08;10.23;;;6.00;;
4652;SDS011;9900;48.738;9.306;2023-06-10T00:21:37;7.67;;;6.23;;
4652;SDS011;9900;48.738;9.306;2023-06-10T00:24:09;9.23;;;6.57;;
4652;SDS011;9900;48.738;9.306;2023-06-10T00:26:39;8.27;;;7.40;;
4652;SDS011;9900;48.738;9.306;2023-06-10T00:29:09;12.57;;;6.50;;
4652;SDS011;9900;48.738;9.306;2023-06-10T00:31:37;8.70;;;6.30;;
4652;SDS011;9900;48.738;9.306;2023-06-10T00:34:06;10.77;;;6.90;;
4652;SDS011;9900;48.738;9.306;2023-06-10T00:36:35;6.73;;;5.93;;
4652;SDS011;9900;48.738;9.306;2023-06-10T00:39:04;8.10;;;6.70;;
4652;SDS011;9900;48.738;9.306;2023-06-10T00:41:34;9.30;;;7.30;;
4652;SDS011;9900;48.738;9.306;2023-06-10T00:44:03;6.63;;;5.90;;
4652;SDS011;9900;48.738;9.306;2023-06-10T00:46:32;6.00;;;5.40;;
4652;SDS011;9900;48.738;9.306;2023-06-10T00:49:00;6.33;;;5.73;;
4652;SDS011;9900;48.738;9.306;2023-06-10T00:51:29;8.80;;;6.20;;
4652;SDS011;9900;48.738;9.306;2023-06-10T00:53:58;7.83;;;6.63;;
4652;SDS011;9900;48.738;9.306;2023-06-10T00:56:27;12.27;;;6.50;;
4652;SDS011;9900;48.738;9.306;2023-06-10T00:58:57;10.20;;;6.33;;
4652;SDS011;9900;48.738;9.306;2023-06-10T01:01:27;9.53;;;7.27;;
4652;SDS011;9900;48.738;9.306;2023-06-10T01:03:57;7.60;;;6.37;;
4652;SDS011;9900;48.738;9.306;2023-06-10T01:06:29;7.17;;;6.23;;
4652;SDS011;9900;48.738;9.306;2023-06-10T01:09:06;12.90;;;7.17;;
4652;SDS011;9900;48.738;9.306;2023-06-10T01:11:40;9.47;;;6.73;;
4652;SDS011;9900;48.738;9.306;2023-06-10T01:14:13;10.53;;;8.20;;
4652;SDS011;9900;48.738;9.306;2023-06-10T01:16:42;9.00;;;6.50;;
4652;SDS011;9900;48.738;9.306;2023-06-10T01:19:13;9.40;;;6.77;;
4652;SDS011;9900;48.738;9.306;2023-06-10T01:21:46;8.20;;;6.57;;
4652;SDS011;9900;48.738;9.306;2023-06-10T01:24:16;9.90;;;6.73;;
4652;SDS011;9900;48.738;9.306;2023-06-10T01:26:45;7.17;;;6.47;;
4652;SDS011;9900;48.738;9.306;2023-06-10T01:29:17;9.27;;;6.97;;
4652;SDS011;9900;48.738;9.306;2023-06-10T01:31:48;8.97;;;7.00;;
4652;SDS011;9900;48.738;9.306;2023-06-10T01:34:18;8.00;;;6.43;;
4652;SDS011;9900;48.738;9.306;2023-06-10T01:36:49;9.20;;;6.50;;
4652;SDS011;9900;48.738;9.306;2023-06-10T01:39:20;9.97;;;7.20;;
4652;SDS011;9900;48.738;9.306;2023-06-10T01:41:52;11.93;;;7.70;;
4652;SDS011;9900;48.738;9.306;2023-06-10T01:44:21;10.47;;;7.60;;
4652;SDS011;9900;48.738;9.306;2023-06-10T01:46:50;11.60;;;7.13;;
4652;SDS011;9900;48.738;9.306;2023-06-10T01:49:19;10.87;;;7.47;;
4652;SDS011;9900;48.738;9.306;2023-06-10T01:51:50;13.57;;;7.63;;
4652;SDS011;9900;48.738;9.306;2023-06-10T01:54:19;8.97;;;7.80;;
4652;SDS011;9900;48.738;9.306;2023-06-10T01:56:48;9.37;;;7.20;;
4652;SDS011;9900;48.738;9.306;2023-06-10T01:59:16;9.93;;;7.87;;
4652;SDS011;9900;48.738;9.306;2023-06-10T02:01:45;12.83;;;7.60;;
4652;SDS011;9900;48.738;9.306;2023-06-10T02:04:14;8.57;;;7.10;;
4652;SDS011;9900;48.738;9.306;2023-06-10T02:06:43;9.87;;;7.57;;
4652;SDS011;9900;48.738;9.306;2023-06-10T02:09:14;8.93;;;7.33;;
4652;SDS011;9900;48.738;9.306;2023-06-10T02:11:43;8.80;;;7.57;;
4652;SDS011;9900;48.738;9.306;2023-06-10T02:14:12;13.60;;;8.00;;
4652;SDS011;9900;48.738;9.306;2023-06-10T02:16:41;10.10;;;7.60;;
4652;SDS011;9900;48.738;9.306;2023-06-10T02:19:14;11.80;;;7.90;;
4652;SDS011;9900;48.738;9.306;2023-06-10T02:21:42;11.23;;;7.80;;
4652;SDS011;9900;48.738;9.306;2023-06-10T02:24:11;9.80;;;7.60;;
4652;SDS011;9900;48.738;9.306;2023-06-10T02:26:41;13.90;;;7.63;;
4652;SDS011;9900;48.738;9.306;2023-06-10T02:29:10;10.90;;;8.30;;
4652;SDS011;9900;48.738;9.306;2023-06-10T02:31:39;9.00;;;7.40;;
4652;SDS011;9900;48.738;9.306;2023-06-10T02:34:08;11.43;;;8.30;;
4652;SDS011;9900;48.738;9.306;2023-06-10T02:36:37;8.00;;;7.20;;
4652;SDS011;9900;48.738;9.306;2023-06-10T02:39:05;7.63;;;6.80;;
4652;SDS011;9900;48.738;9.306;2023-06-10T02:41:35;10.00;;;7.77;;
4652;SDS011;9900;48.738;9.306;2023-06-10T02:44:05;8.70;;;7.30;;
4652;SDS011;9900;48.738;9.306;2023-06-10T02:46:34;14.00;;;7.20;;
4652;SDS011;9900;48.738;9.306;2023-06-10T02:49:03;7.97;;;7.17;;
4652;SDS011;9900;48.738;9.306;2023-06-10T02:51:31;9.67;;;7.77;;
4652;SDS011;9900;48.738;9.306;2023-06-10T02:54:00;10.60;;;7.13;;
4652;SDS011;9900;48.738;9.306;2023-06-10T02:56:29;8.30;;;7.40;;
4652;SDS011;9900;48.738;9.306;2023-06-10T02:58:58;10.90;;;7.80;;
4652;SDS011;9900;48.738;9.306;2023-06-10T03:01:29;11.53;;;8.17;;
4652;SDS011;9900;48.738;9.306;2023-06-10T03:03:59;9.77;;;8.17;;
4652;SDS011;9900;48.738;9.306;2023-06-10T03:06:28;10.20;;;8.03;;
4652;SDS011;9900;48.738;9.306;2023-06-10T03:08:56;10.70;;;7.80;;
4652;SDS011;9900;48.738;9.306;2023-06-10T03:11:25;11.93;;;8.20;;
4652;SDS011;9900;48.738;9.306;2023-06-10T03:13:54;11.13;;;7.23;;
4652;SDS011;9900;48.738;9.306;2023-06-10T03:16:23;10.97;;;7.50;;
4652;SDS011;9900;48.738;9.306;2023-06-10T03:18:54;8.17;;;7.37;;
4652;SDS011;9900;48.738;9.306;2023-06-10T03:21:22;7.10;;;6.20;;
4652;SDS011;9900;48.738;9.306;2023-06-10T03:23:51;13.90;;;8.87;;
4652;SDS011;9900;48.738;9.306;2023-06-10T03:26:20;12.17;;;7.10;;
4652;SDS011;9900;48.738;9.306;2023-06-10T03:28:49;8.67;;;7.77;;
4652;SDS011;9900;48.738;9.306;2023-06-10T03:31:17;10.00;;;7.20;;
4652;SDS011;9900;48.738;9.306;2023-06-10T03:33:46;10.93;;;8.77;;
4652;SDS011;9900;48.738;9.306;2023-06-10T03:36:16;8.87;;;7.63;;
4652;SDS011;9900;48.738;9.306;2023-06-10T03:38:45;8.57;;;7.60;;
4652;SDS011;9900;48.738;9.306;2023-06-10T03:41:13;10.83;;;6.77;;
4652;SDS011;9900;48.738;9.306;2023-06-10T03:43:42;7.83;;;7.03;;
4652;SDS011;9900;48.738;9.306;2023-06-10T03:46:11;7.90;;;7.10;;
4652;SDS011;9900;48.738;9.306;2023-06-10T03:48:40;9.50;;;7.43;;
4652;SDS011;9900;48.738;9.306;2023-06-10T03:51:09;7.93;;;7.13;;
4652;SDS011;9900;48.738;9.306;2023-06-10T03:53:39;8.83;;;7.60;;
4652;SDS011;9900;48.738;9.306;2023-06-10T03:56:08;9.90;;;7.70;;
4652;SDS011;9900;48.738;9.306;2023-06-10T03:58:36;8.07;;;7.27;;
4652;SDS011;9900;48.738;9.306;2023-06-10T04:01:05;10.60;;;8.20;;
4652;SDS011;9900;48.738;9.306;2023-06-10T04:03:34;9.73;;;8.30;;
4652;SDS011;9900;48.738;9.306;2023-06-10T04:06:03;8.73;;;7.10;;
4652;SDS011;9900;48.738;9.306;2023-06-10T04:08:32;12.27;;;8.40;;
4652;SDS011;9900;48.738;9.306;2023-06-10T04:11:02;9.37;;;6.43;;
4652;SDS011;9900;48.738;9.306;2023-06-10T04:13:31;12.57;;;8.13;;
4652;SDS011;9900;48.738;9.306;2023-06-10T04:15:59;8.27;;;7.47;;
4652;SDS011;9900;48.738;9.306;2023-06-10T04:18:29;9.87;;;8.00;;
4652;SDS011;9900;48.738;9.306;2023-06-10T04:20:58;8.27;;;7.30;;
4652;SDS011;9900;48.738;9.306;2023-06-10T04:23:27;8.80;;;7.90;;
4652;SDS011;9900;48.738;9.306;2023-06-10T04:25:56;10.33;;;8.00;;
4652;SDS011;9900;48.738;9.306;2023-06-10T04:28:28;10.33;;;7.50;;
4652;SDS011;9900;48.738;9.306;2023-06-10T04:30:56;8.53;;;6.50;;
4652;SDS011;9900;48.738;9.306;2023-06-10T04:33:26;8.97;;;7.30;;
4652;SDS011;9900;48.738;9.306;2023-06-10T04:35:55;9.10;;;6.90;;
4652;SDS011;9900;48.738;9.306;2023-06-10T04:38:24;10.23;;;7.90;;
4652;SDS011;9900;48.738;9.306;2023-06-10T04:40:53;9.33;;;8.30;;
4652;SDS011;9900;48.738;9.306;2023-06-10T04:43:22;11.37;;;7.13;;
4652;SDS011;9900;48.738;9.306;2023-06-10T04:45:52;11.00;;;8.73;;
4652;SDS011;9900;48.738;9.306;2023-06-10T04:48:21;12.37;;;8.80;;
4652;SDS011;9900;48.738;9.306;2023-06-10T04:50:51;9.97;;;7.70;;
4652;SDS011;9900;48.738;9.306;2023-06-10T04:53:19;12.40;;;9.13;;
4652;SDS011;9900;48.738;9.306;2023-06-10T04:55:48;10.00;;;8.80;;
4652;SDS011;9900;48.738;9.306;2023-06-10T04:58:17;9.57;;;8.20;;
4652;SDS011;9900;48.738;9.306;2023-06-10T05:00:46;9.70;;;7.93;;
4652;SDS011;9900;48.738;9.306;2023-06-10T05:03:16;9.43;;;7.77;;
4652;SDS011;9900;48.738;9.306;2023-06-10T05:05:45;10.47;;;8.00;;
4652;SDS011;9900;48.738;9.306;2023-06-10T05:08:14;11.23;;;8.10;;
4652;SDS011;9900;48.738;9.306;2023-06-10T05:10:42;9.90;;;8.20;;
4652;SDS011;9900;48.738;9.306;2023-06-10T05:13:11;8.93;;;8.03;;
4652;SDS011;9900;48.738;9.306;2023-06-10T05:15:40;8.97;;;7.50;;
4652;SDS011;9900;48.738;9.306;2023-06-10T05:18:11;8.67;;;7.47;;
4652;SDS011;9900;48.738;9.306;2023-06-10T05:20:41;8.77;;;7.50;;
4652;SDS011;9900;48.738;9.306;2023-06-10T05:23:10;10.53;;;8.00;;
4652;SDS011;9900;48.738;9.306;2023-06-10T05:25:39;8.90;;;7.67;;
4652;SDS011;9900;48.738;9.306;2023-06-10T05:28:08;11.17;;;7.87;;
4652;SDS011;9900;48.738;9.306;2023-06-10T05:30:41;8.90;;;7.67;;
4652;SDS011;9900;48.738;9.306;2023-06-10T05:33:10;10.77;;;7.90;;
4652;SDS011;9900;48.738;9.306;2023-06-10T05:35:39;12.73;;;8.03;;
4652;SDS011;9900;48.738;9.306;2023-06-10T05:38:09;8.53;;;7.40;;
4652;SDS011;9900;48.738;9.306;2023-06-10T05:40:38;9.37;;;7.23;;
4652;SDS011;9900;48.738;9.306;2023-06-10T05:43:07;8.23;;;7.23;;
4652;SDS011;9900;48.738;9.306;2023-06-10T05:45:36;11.10;;;7.40;;
4652;SDS011;9900;48.738;9.306;2023-06-10T05:48:07;8.73;;;6.77;;
4652;SDS011;9900;48.738;9.306;2023-06-10T05:50:36;6.77;;;5.63;;
4652;SDS011;9900;48.738;9.306;2023-06-10T05:53:07;6.47;;;5.77;;
4652;SDS011;9900;48.738;9.306;2023-06-10T05:55:44;8.10;;;6.67;;
4652;SDS011;9900;48.738;9.306;2023-06-10T05:58:13;10.83;;;6.43;;
4652;SDS011;9900;48.738;9.306;2023-06-10T06:00:42;7.63;;;6.00;;
4652;SDS011;9900;48.738;9.306;2023-06-10T06:03:11;8.17;;;6.20;;
4652;SDS011;9900;48.738;9.306;2023-06-10T06:05:40;9.43;;;5.80;;
4652;SDS011;9900;48.738;9.306;2023-06-10T06:08:09;7.80;;;7.00;;
4652;SDS011;9900;48.738;9.306;2023-06-10T06:10:38;7.80;;;6.77;;
4652;SDS011;9900;48.738;9.306;2023-06-10T06:13:08;7.23;;;5.60;;
4652;SDS011;9900;48.738;9.306;2023-06-10T06:15:37;6.70;;;6.00;;
4652;SDS011;9900;48.738;9.306;2023-06-10T06:18:06;5.83;;;5.23;;
4652;SDS011;9900;48.738;9.306;2023-06-10T06:20:35;7.20;;;5.60;;
4652;SDS011;9900;48.738;9.306;2023-06-10T06:23:03;6.73;;;5.67;;
4652;SDS011;9900;48.738;9.306;2023-06-10T06:25:32;10.53;;;5.07;;
4652;SDS011;9900;48.738;9.306;2023-06-10T06:28:02;7.90;;;5.77;;
4652;SDS011;9900;48.738;9.306;2023-06-10T06:30:32;7.50;;;6.20;;
4652;SDS011;9900;48.738;9.306;2023-06-10T06:33:01;6.00;;;5.30;;
4652;SDS011;9900;48.738;9.306;2023-06-10T06:35:30;5.30;;;4.80;;
4652;SDS011;9900;48.738;9.306;2023-06-10T06:37:59;5.83;;;5.33;;
4652;SDS011;9900;48.738;9.306;2023-06-10T06:40:28;10.90;;;4.80;;
4652;SDS011;9900;48.738;9.306;2023-06-10T06:42:57;6.33;;;5.67;;
4652;SDS011;9900;48.738;9.306;2023-06-10T06:45:25;7.97;;;5.93;;
4652;SDS011;9900;48.738;9.306;2023-06-10T06:47:55;9.10;;;6.13;;
4652;SDS011;9900;48.738;9.306;2023-06-10T06:50:24;6.60;;;5.97;;
4652;SDS011;9900;48.738;9.306;2023-06-10T06:52:53;6.13;;;5.37;;
4652;SDS011;9900;48.738;9.306;2023-06-10T06:55:22;5.00;;;4.60;;
4652;SDS011;9900;48.738;9.306;2023-06-10T06:57:51;5.50;;;5.00;;
4652;SDS011;9900;48.738;9.306;2023-06-10T07:00:20;7.40;;;5.03;;
4652;SDS011;9900;48.738;9.306;2023-06-10T07:02:48;5.67;;;5.13;;
4652;SDS011;9900;48.738;9.306;2023-06-10T07:05:19;6.23;;;5.63;;
4652;SDS011;9900;48.738;9.306;2023-06-10T07:07:47;5.03;;;4.43;;
4652;SDS011;9900;48.738;9.306;2023-06-10T07:10:22;5.67;;;5.17;;
4652;SDS011;9900;48.738;9.306;2023-06-10T07:12:51;5.77;;;4.90;;
4652;SDS011;9900;48.738;9.306;2023-06-10T07:15:20;6.23;;;5.57;;
4652;SDS011;9900;48.738;9.306;2023-06-10T07:17:49;7.27;;;5.40;;
4652;SDS011;9900;48.738;9.306;2023-06-10T07:20:19;5.43;;;4.93;;
4652;SDS011;9900;48.738;9.306;2023-06-10T07:22:48;5.33;;;4.93;;
4652;SDS011;9900;48.738;9.306;2023-06-10T07:25:17;5.13;;;4.63;;
4652;SDS011;9900;48.738;9.306;2023-06-10T07:27:45;5.43;;;4.93;;
4652;SDS011;9900;48.738;9.306;2023-06-10T07:30:14;4.93;;;4.53;;
4652;SDS011;9900;48.738;9.306;2023-06-10T07:32:43;6.80;;;4.67;;
4652;SDS011;9900;48.738;9.306;2023-06-10T07:35:12;6.13;;;4.90;;
4652;SDS011;9900;48.738;9.306;2023-06-10T07:37:43;5.80;;;5.00;;
4652;SDS011;9900;48.738;9.306;2023-06-10T07:40:12;6.20;;;5.30;;
4652;SDS011;9900;48.738;9.306;2023-06-10T07:42:41;5.60;;;4.80;;
4652;SDS011;9900;48.738;9.306;2023-06-10T07:45:10;4.50;;;4.10;;
4652;SDS011;9900;48.738;9.306;2023-06-10T07:47:39;4.70;;;4.30;;
4652;SDS011;9900;48.738;9.306;2023-06-10T07:50:08;4.80;;;4.23;;
4652;SDS011;9900;48.738;9.306;2023-06-10T07:52:37;5.83;;;4.30;;
4652;SDS011;9900;48.738;9.306;2023-06-10T07:55:08;4.73;;;4.33;;
4652;SDS011;9900;48.738;9.306;2023-06-10T07:57:38;4.47;;;4.07;;
4652;SDS011;9900;48.738;9.306;2023-06-10T08:00:07;5.60;;;4.07;;
4652;SDS011;9900;48.738;9.306;2023-06-10T08:02:37;4.97;;;4.57;;
4652;SDS011;9900;48.738;9.306;2023-06-10T08:05:06;5.83;;;4.50;;
4652;SDS011;9900;48.738;9.306;2023-06-10T08:07:36;5.37;;;4.40;;
4652;SDS011;9900;48.738;9.306;2023-06-10T08:10:05;4.67;;;4.27;;
4652;SDS011;9900;48.738;9.306;2023-06-10T08:12:36;5.30;;;4.80;;
4652;SDS011;9900;48.738;9.306;2023-06-10T08:15:05;4.97;;;4.47;;
4652;SDS011;9900;48.738;9.306;2023-06-10T08:17:36;4.43;;;4.00;;
4652;SDS011;9900;48.738;9.306;2023-06-10T08:20:06;6.20;;;4.80;;
4652;SDS011;9900;48.738;9.306;2023-06-10T08:22:35;4.87;;;4.47;;
4652;SDS011;9900;48.738;9.306;2023-06-10T08:25:04;5.87;;;4.40;;
4652;SDS011;9900;48.738;9.306;2023-06-10T08:27:35;5.83;;;3.83;;
4652;SDS011;9900;48.738;9.306;2023-06-10T08:30:04;4.60;;;4.20;;
4652;SDS011;9900;48.738;9.306;2023-06-10T08:32:34;8.43;;;4.50;;
4652;SDS011;9900;48.738;9.306;2023-06-10T08:35:03;5.90;;;4.23;;
4652;SDS011;9900;48.738;9.306;2023-06-10T08:37:32;4.73;;;4.33;;
4652;SDS011;9900;48.738;9.306;2023-06-10T08:40:01;4.73;;;4.10;;
4652;SDS011;9900;48.738;9.306;2023-06-10T08:42:32;4.33;;;4.03;;
4652;SDS011;9900;48.738;9.306;2023-06-10T08:45:04;4.33;;;4.00;;
4652;SDS011;9900;48.738;9.306;2023-06-10T08:47:34;5.47;;;3.97;;
4652;SDS011;9900;48.738;9.306;2023-06-10T08:50:04;4.97;;;4.50;;
4652;SDS011;9900;48.738;9.306;2023-06-10T08:52:35;7.50;;;4.63;;
4652;SDS011;9900;48.738;9.306;2023-06-10T08:55:08;4.40;;;4.00;;
4652;SDS011;9900;48.738;9.306;2023-06-10T09:00:11;4.63;;;4.17;;
4652;SDS011;9900;48.738;9.306;2023-06-10T09:02:40;5.80;;;4.80;;
4652;SDS011;9900;48.738;9.306;2023-06-10T09:05:09;5.03;;;4.23;;
4652;SDS011;9900;48.738;9.306;2023-06-10T09:07:38;4.77;;;3.60;;
4652;SDS011;9900;48.738;9.306;2023-06-10T09:10:08;4.00;;;3.70;;
4652;SDS011;9900;48.738;9.306;2023-06-10T09:12:38;4.07;;;3.70;;
4652;SDS011;9900;48.738;9.306;2023-06-10T09:15:07;3.70;;;3.40;;
4652;SDS011;9900;48.738;9.306;2023-06-10T09:17:38;4.17;;;3.83;;
4652;SDS011;9900;48.738;9.306;2023-06-10T09:20:08;3.80;;;3.50;;
4652;SDS011;9900;48.738;9.306;2023-06-10T09:22:37;3.93;;;3.63;;
4652;SDS011;9900;48.738;9.306;2023-06-10T09:25:07;4.73;;;3.83;;
4652;SDS011;9900;48.738;9.306;2023-06-10T09:27:43;4.87;;;3.60;;
4652;SDS011;9900;48.738;9.306;2023-06-10T09:30:20;3.97;;;3.67;;
4652;SDS011;9900;48.738;9.306;2023-06-10T09:32:55;4.07;;;3.67;;
4652;SDS011;9900;48.738;9.306;2023-06-10T09:35:24;6.60;;;3.67;;
4652;SDS011;9900;48.738;9.306;2023-06-10T09:37:55;4.37;;;3.97;;
4652;SDS011;9900;48.738;9.306;2023-06-10T09:40:25;3.50;;;3.20;;
4652;SDS011;9900;48.738;9.306;2023-06-10T09:42:55;4.40;;;4.00;;
4652;SDS011;9900;48.738;9.306;2023-06-10T09:45:27;3.90;;;3.60;;
4652;SDS011;9900;48.738;9.306;2023-06-10T09:47:59;3.93;;;3.50;;
4652;SDS011;9900;48.738;9.306;2023-06-10T09:50:32;6.80;;;3.80;;
4652;SDS011;9900;48.738;9.306;2023-06-10T09:53:01;3.50;;;3.20;;
4652;SDS011;9900;48.738;9.306;2023-06-10T09:55:31;4.80;;;3.60;;
4652;SDS011;9900;48.738;9.306;2023-06-10T09:58:01;3.90;;;3.50;;
4652;SDS011;9900;48.738;9.306;2023-06-10T10:00:31;4.20;;;3.80;;
4652;SDS011;9900;48.738;9.306;2023-06-10T10:03:01;4.30;;;3.43;;
4652;SDS011;9900;48.738;9.306;2023-06-10T10:05:30;4.13;;;3.80;;
4652;SDS011;9900;48.738;9.306;2023-06-10T10:07:59;5.23;;;4.03;;
4652;SDS011;9900;48.738;9.306;2023-06-10T10:10:29;4.00;;;3.70;;
4652;SDS011;9900;48.738;9.306;2023-06-10T10:12:57;3.50;;;3.20;;
4652;SDS011;9900;48.738;9.306;2023-06-10T10:15:28;3.73;;;3.43;;
4652;SDS011;9900;48.738;9.306;2023-06-10T10:18:00;9.63;;;3.40;;
4652;SDS011;9900;48.738;9.306;2023-06-10T10:20:37;4.00;;;3.70;;
4652;SDS011;9900;48.738;9.306;2023-06-10T10:23:10;3.90;;;3.60;;
4652;SDS011;9900;48.738;9.306;2023-06-10T10:25:42;6.33;;;4.47;;
4652;SDS011;9900;48.738;9.306;2023-06-10T10:28:11;8.00;;;3.80;;
4652;SDS011;9900;48.738;9.306;2023-06-10T10:30:41;3.53;;;3.23;;
4652;SDS011;9900;48.738;9.306;2023-06-10T10:33:16;4.43;;;3.80;;
4652;SDS011;9900;48.738;9.306;2023-06-10T10:35:47;5.07;;;3.90;;
4652;SDS011;9900;48.738;9.306;2023-06-10T10:38:16;3.63;;;3.33;;
4652;SDS011;9900;48.738;9.306;2023-06-10T10:40:45;3.53;;;3.23;;
4652;SDS011;9900;48.738;9.306;2023-06-10T10:43:15;4.30;;;3.30;;
4652;SDS011;9900;48.738;9.306;2023-06-10T10:45:46;8.27;;;3.40;;
4652;SDS011;9900;48.738;9.306;2023-06-10T10:48:16;3.43;;;3.13;;
4652;SDS011;9900;48.738;9.306;2023-06-10T10:50:48;3.40;;;3.10;;
4652;SDS011;9900;48.738;9.306;2023-06-10T10:53:24;3.10;;;2.90;;
4652;SDS011;9900;48.738;9.306;2023-06-10T10:55:59;2.90;;;2.70;;
4652;SDS011;9900;48.738;9.306;2023-06-10T10:58:28;2.80;;;2.60;;
4652;SDS011;9900;48.738;9.306;2023-06-10T11:00:57;8.83;;;3.17;;
4652;SDS011;9900;48.738;9.306;2023-06-10T11:03:29;4.43;;;2.90;;
4652;SDS011;9900;48.738;9.306;2023-06-10T11:05:58;3.10;;;2.90;;
4652;SDS011;9900;48.738;9.306;2023-06-10T11:08:46;3.80;;;3.37;;
4652;SDS011;9900;48.738;9.306;2023-06-10T11:11:20;3.47;;;3.23;;
4652;SDS011;9900;48.738;9.306;2023-06-10T11:13:59;3.50;;;3.20;;
4652;SDS011;9900;48.738;9.306;2023-06-10T11:16:39;3.00;;;2.80;;
4652;SDS011;9900;48.738;9.306;2023-06-10T11:19:11;3.80;;;3.40;;
4652;SDS011;9900;48.738;9.306;2023-06-10T11:22:00;3.90;;;3.50;;
4652;SDS011;9900;48.738;9.306;2023-06-10T11:24:29;3.50;;;3.30;;
4652;SDS011;9900;48.738;9.306;2023-06-10T11:27:14;3.67;;;3.37;;
4652;SDS011;9900;48.738;9.306;2023-06-10T11:32:50;7.73;;;3.30;;
4652;SDS011;9900;48.738;9.306;2023-06-10T11:35:21;3.83;;;3.00;;
4652;SDS011;9900;48.738;9.306;2023-06-10T11:37:52;3.97;;;3.30;;
4652;SDS011;9900;48.738;9.306;2023-06-10T11:40:21;5.40;;;3.53;;
4652;SDS011;9900;48.738;9.306;2023-06-10T11:42:49;3.30;;;3.10;;
4652;SDS011;9900;48.738;9.306;2023-06-10T11:45:18;3.00;;;2.80;;
4652;SDS011;9900;48.738;9.306;2023-06-10T11:47:56;5.00;;;3.13;;
4652;SDS011;9900;48.738;9.306;2023-06-10T11:50:30;3.47;;;3.17;;
4652;SDS011;9900;48.738;9.306;2023-06-10T11:52:59;3.33;;;2.90;;
4652;SDS011;9900;48.738;9.306;2023-06-10T11:55:40;3.50;;;2.90;;
4652;SDS011;9900;48.738;9.306;2023-06-10T11:58:13;3.93;;;3.53;;
4652;SDS011;9900;48.738;9.306;2023-06-10T12:00:46;4.53;;;3.50;;
4652;SDS011;9900;48.738;9.306;2023-06-10T12:03:15;3.57;;;3.27;;
4652;SDS011;9900;48.738;9.306;2023-06-10T12:05:58;3.50;;;3.23;;
4652;SDS011;9900;48.738;9.306;2023-06-10T12:08:28;3.17;;;2.97;;
4652;SDS011;9900;48.738;9.306;2023-06-10T12:10:57;3.17;;;2.93;;
4652;SDS011;9900;48.738;9.306;2023-06-10T12:13:26;4.07;;;3.23;;
4652;SDS011;9900;48.738;9.306;2023-06-10T12:16:05;3.30;;;3.00;;
4652;SDS011;9900;48.738;9.306;2023-06-10T12:18:34;3.57;;;3.30;;
4652;SDS011;9900;48.738;9.306;2023-06-10T12:21:05;3.60;;;3.30;;
4652;SDS011;9900;48.738;9.306;2023-06-10T12:24:00;4.00;;;3.50;;
4652;SDS011;9900;48.738;9.306;2023-06-10T12:26:39;4.73;;;3.70;;
4652;SDS011;9900;48.738;9.306;2023-06-10T12:29:16;7.50;;;3.30;;
4652;SDS011;9900;48.738;9.306;2023-06-10T12:31:56;5.20;;;3.50;;
4652;SDS011;9900;48.738;9.306;2023-06-10T12:34:32;4.60;;;3.43;;
4652;SDS011;9900;48.738;9.306;2023-06-10T12:37:05;2.87;;;2.67;;
4652;SDS011;9900;48.738;9.306;2023-06-10T12:39:35;3.47;;;3.17;;
4652;SDS011;9900;48.738;9.306;2023-06-10T12:42:04;3.40;;;3.10;;
4652;SDS011;9900;48.738;9.306;2023-06-10T12:44:38;6.10;;;3.13;;
4652;SDS011;9900;48.738;9.306;2023-06-10T12:47:08;2.87;;;2.67;;
4652;SDS011;9900;48.738;9.306;2023-06-10T12:49:39;3.60;;;2.90;;
4652;SDS011;9900;48.738;9.306;2023-06-10T12:52:09;5.00;;;3.27;;
4652;SDS011;9900;48.738;9.306;2023-06-10T12:54:38;4.07;;;2.73;;
4652;SDS011;9900;48.738;9.306;2023-06-10T12:57:08;4.60;;;3.53;;
4652;SDS011;9900;48.738;9.306;2023-06-10T12:59:37;3.60;;;3.30;;
4652;SDS011;9900;48.738;9.306;2023-06-10T13:02:06;3.33;;;3.00;;
4652;SDS011;9900;48.738;9.306;2023-06-10T13:04:36;3.53;;;2.90;;
4652;SDS011;9900;48.738;9.306;2023-06-10T13:07:04;3.50;;;3.03;;
4652;SDS011;9900;48.738;9.306;2023-06-10T13:09:35;5.53;;;3.10;;
4652;SDS011;9900;48.738;9.306;2023-06-10T13:12:04;3.13;;;2.93;;
4652;SDS011;9900;48.738;9.306;2023-06-10T13:14:41;2.70;;;2.50;;
4652;SDS011;9900;48.738;9.306;2023-06-10T13:17:10;3.30;;;3.00;;
4652;SDS011;9900;48.738;9.306;2023-06-10T13:19:39;3.20;;;3.00;;
4652;SDS011;9900;48.738;9.306;2023-06-10T13:22:07;3.17;;;2.97;;
4652;SDS011;9900;48.738;9.306;2023-06-10T13:24:39;4.77;;;3.30;;
4652;SDS011;9900;48.738;9.306;2023-06-10T13:27:11;3.60;;;3.00;;
4652;SDS011;9900;48.738;9.306;2023-06-10T13:29:41;3.77;;;3.33;;
4652;SDS011;9900;48.738;9.306;2023-06-10T13:32:10;2.97;;;2.70;;
4652;SDS011;9900;48.738;9.306;2023-06-10T13:34:38;3.40;;;3.10;;
4652;SDS011;9900;48.738;9.306;2023-06-10T13:37:07;3.53;;;3.23;;
4652;SDS011;9900;48.738;9.306;2023-06-10T13:39:36;3.50;;;3.20;;
4652;SDS011;9900;48.738;9.306;2023-06-10T13:42:06;3.27;;;2.97;;
4652;SDS011;9900;48.738;9.306;2023-06-10T13:44:36;3.27;;;3.00;;
4652;SDS011;9900;48.738;9.306;2023-06-10T13:47:05;3.83;;;3.40;;
4652;SDS011;9900;48.738;9.306;2023-06-10T13:49:34;3.80;;;3.17;;
4652;SDS011;9900;48.738;9.306;2023-06-10T13:52:03;3.27;;;3.07;;
4652;SDS011;9900;48.738;9.306;2023-06-10T13:54:32;4.23;;;3.37;;
4652;SDS011;9900;48.738;9.306;2023-06-10T13:57:03;3.10;;;2.80;;
4652;SDS011;9900;48.738;9.306;2023-06-10T13:59:34;3.47;;;3.27;;
4652;SDS011;9900;48.738;9.306;2023-06-10T14:02:02;3.57;;;3.30;;
4652;SDS011;9900;48.738;9.306;2023-06-10T14:04:32;4.60;;;3.27;;
4652;SDS011;9900;48.738;9.306;2023-06-10T14:07:01;6.37;;;4.00;;
4652;SDS011;9900;48.738;9.306;2023-06-10T14:09:29;4.13;;;3.30;;
4652;SDS011;9900;48.738;9.306;2023-06-10T14:11:58;4.23;;;3.20;;
4652;SDS011;9900;48.738;9.306;2023-06-10T14:14:27;3.03;;;2.83;;
4652;SDS011;9900;48.738;9.306;2023-06-10T14:16:57;3.47;;;3.17;;
4652;SDS011;9900;48.738;9.306;2023-06-10T14:19:26;3.13;;;2.83;;
4652;SDS011;9900;48.738;9.306;2023-06-10T14:21:54;3.47;;;2.90;;
4652;SDS011;9900;48.738;9.306;2023-06-10T14:24:23;3.33;;;3.03;;
4652;SDS011;9900;48.738;9.306;2023-06-10T14:26:52;3.87;;;3.57;;
4652;SDS011;9900;48.738;9.306;2023-06-10T14:29:21;4.20;;;3.80;;
4652;SDS011;9900;48.738;9.306;2023-06-10T14:31:50;4.43;;;4.03;;
4652;SDS011;9900;48.738;9.306;2023-06-10T14:34:20;3.57;;;3.27;;
4652;SDS011;9900;48.738;9.306;2023-06-10T14:36:50;3.33;;;3.10;;
4652;SDS011;9900;48.738;9.306;2023-06-10T14:39:19;4.87;;;3.50;;
4652;SDS011;9900;48.738;9.306;2023-06-10T14:41:48;4.03;;;3.40;;
4652;SDS011;9900;48.738;9.306;2023-06-10T14:44:16;3.77;;;3.30;;
4652;SDS011;9900;48.738;9.306;2023-06-10T14:46:45;4.03;;;3.63;;
4652;SDS011;9900;48.738;9.306;2023-06-10T14:49:14;3.93;;;3.50;;
4652;SDS011;9900;48.738;9.306;2023-06-10T14:51:45;4.10;;;3.80;;
4652;SDS011;9900;48.738;9.306;2023-06-10T14:54:15;4.27;;;3.87;;
4652;SDS011;9900;48.738;9.306;2023-06-10T14:56:44;5.10;;;3.87;;
4652;SDS011;9900;48.738;9.306;2023-06-10T14:59:13;4.30;;;3.90;;
4652;SDS011;9900;48.738;9.306;2023-06-10T15:01:42;4.00;;;3.60;;
4652;SDS011;9900;48.738;9.306;2023-06-10T15:04:11;4.40;;;3.97;;
4652;SDS011;9900;48.738;9.306;2023-06-10T15:06:39;4.60;;;4.20;;
4652;SDS011;9900;48.738;9.306;2023-06-10T15:09:10;4.50;;;3.87;;
4652;SDS011;9900;48.738;9.306;2023-06-10T15:11:39;3.90;;;3.60;;
4652;SDS011;9900;48.738;9.306;2023-06-10T15:14:07;6.73;;;4.20;;
4652;SDS011;9900;48.738;9.306;2023-06-10T15:16:36;5.10;;;3.70;;
4652;SDS011;9900;48.738;9.306;2023-06-10T15:19:05;5.97;;;3.90;;
4652;SDS011;9900;48.738;9.306;2023-06-10T15:21:35;3.90;;;3.60;;
4652;SDS011;9900;48.738;9.306;2023-06-10T15:24:04;6.43;;;4.00;;
4652;SDS011;9900;48.738;9.306;2023-06-10T15:26:35;6.07;;;3.80;;
4652;SDS011;9900;48.738;9.306;2023-06-10T15:29:04;3.63;;;3.33;;
4652;SDS011;9900;48.738;9.306;2023-06-10T15:31:33;5.00;;;3.70;;
4652;SDS011;9900;48.738;9.306;2023-06-10T15:34:02;5.00;;;3.60;;
4652;SDS011;9900;48.738;9.306;2023-06-10T15:36:32;4.33;;;4.03;;